sensor_id;sensor_type;location;lat;lon;timestamp;P1;durP1;ratioP1;P2;durP2;ratioP2
19519;SDS011;9904;52.246;20.898;2023-04-25T00:01:49;24.43;;;14.40;;
19519;SDS011;9904;52.246;20.898;2023-04-25T00:04:17;21.47;;;13.70;;
19519;SDS011;9904;52.246;20.898;2023-04-25T00:06:44;23.17;;;14.23;;
19519;SDS011;9904;52.246;20.898;2023-04-25T00:09:11;22.00;;;14.43;;
19519;SDS011;9904;52.246;20.898;2023-04-25T00:11:37;22.37;;;14.17;;
19519;SDS011;9904;52.246;20.898;2023-04-25T00:14:04;22.93;;;14.57;;
19519;SDS011;9904;52.246;20.898;2023-04-25T00:16:31;22.57;;;15.23;;
19519;SDS011;9904;52.246;20.898;2023-04-25T00:19:01;27.60;;;15.10;;
19519;SDS011;9904;52.246;20.898;2023-04-25T00:21:29;21.80;;;15.07;;
19519;SDS011;9904;52.246;20.898;2023-04-25T00:23:57;25.43;;;15.47;;
19519;SDS011;9904;52.246;20.898;2023-04-25T00:26:24;27.23;;;15.97;;
19519;SDS011;9904;52.246;20.898;2023-04-25T00:28:51;23.67;;;15.23;;
19519;SDS011;9904;52.246;20.898;2023-04-25T00:31:18;27.07;;;16.00;;
19519;SDS011;9904;52.246;20.898;2023-04-25T00:33:44;28.67;;;16.90;;
19519;SDS011;9904;52.246;20.898;2023-04-25T00:36:11;29.77;;;16.73;;
19519;SDS011;9904;52.246;20.898;2023-04-25T00:38:37;27.47;;;16.07;;
19519;SDS011;9904;52.246;20.898;2023-04-25T00:41:05;26.30;;;16.70;;
19519;SDS011;9904;52.246;20.898;2023-04-25T00:43:32;29.10;;;16.97;;
19519;SDS011;9904;52.246;20.898;2023-04-25T00:45:59;28.27;;;16.57;;
19519;SDS011;9904;52.246;20.898;2023-04-25T00:48:26;23.73;;;16.57;;
19519;SDS011;9904;52.246;20.898;2023-04-25T00:50:54;26.17;;;17.50;;
19519;SDS011;9904;52.246;20.898;2023-04-25T00:53:22;28.77;;;17.60;;
19519;SDS011;9904;52.246;20.898;2023-04-25T00:55:49;28.70;;;17.83;;
19519;SDS011;9904;52.246;20.898;2023-04-25T00:58:20;28.33;;;18.13;;
19519;SDS011;9904;52.246;20.898;2023-04-25T01:00:47;34.10;;;18.60;;
19519;SDS011;9904;52.246;20.898;2023-04-25T01:03:15;30.97;;;19.27;;
19519;SDS011;9904;52.246;20.898;2023-04-25T01:05:48;33.33;;;19.03;;
19519;SDS011;9904;52.246;20.898;2023-04-25T01:08:15;28.33;;;19.53;;
19519;SDS011;9904;52.246;20.898;2023-04-25T01:10:42;35.03;;;20.03;;
19519;SDS011;9904;52.246;20.898;2023-04-25T01:13:08;37.33;;;19.97;;
19519;SDS011;9904;52.246;20.898;2023-04-25T01:15:36;32.30;;;19.87;;
19519;SDS011;9904;52.246;20.898;2023-04-25T01:18:04;31.23;;;20.43;;
19519;SDS011;9904;52.246;20.898;2023-04-25T01:20:32;34.37;;;20.87;;
19519;SDS011;9904;52.246;20.898;2023-04-25T01:22:59;31.50;;;19.70;;
19519;SDS011;9904;52.246;20.898;2023-04-25T01:25:26;33.20;;;20.13;;
19519;SDS011;9904;52.246;20.898;2023-04-25T01:27:52;31.37;;;19.40;;
19519;SDS011;9904;52.246;20.898;2023-04-25T01:30:19;32.40;;;20.20;;
19519;SDS011;9904;52.246;20.898;2023-04-25T01:32:45;31.23;;;19.10;;
19519;SDS011;9904;52.246;20.898;2023-04-25T01:35:13;32.90;;;20.13;;
19519;SDS011;9904;52.246;20.898;2023-04-25T01:37:40;32.60;;;19.07;;
19519;SDS011;9904;52.246;20.898;2023-04-25T01:40:09;34.43;;;19.50;;
19519;SDS011;9904;52.246;20.898;2023-04-25T01:42:38;33.37;;;20.20;;
19519;SDS011;9904;52.246;20.898;2023-04-25T01:45:06;28.97;;;19.73;;
19519;SDS011;9904;52.246;20.898;2023-04-25T01:47:33;33.33;;;19.17;;
19519;SDS011;9904;52.246;20.898;2023-04-25T01:50:03;33.13;;;18.77;;
19519;SDS011;9904;52.246;20.898;2023-04-25T01:52:31;32.50;;;20.27;;
19519;SDS011;9904;52.246;20.898;2023-04-25T01:54:57;31.70;;;20.00;;
19519;SDS011;9904;52.246;20.898;2023-04-25T01:57:26;35.07;;;20.17;;
19519;SDS011;9904;52.246;20.898;2023-04-25T01:59:55;32.20;;;20.60;;
19519;SDS011;9904;52.246;20.898;2023-04-25T02:02:25;32.90;;;19.23;;
19519;SDS011;9904;52.246;20.898;2023-04-25T02:04:52;32.30;;;19.47;;
19519;SDS011;9904;52.246;20.898;2023-04-25T02:07:20;32.70;;;20.23;;
19519;SDS011;9904;52.246;20.898;2023-04-25T02:09:47;32.40;;;20.10;;
19519;SDS011;9904;52.246;20.898;2023-04-25T02:12:13;33.87;;;19.97;;
19519;SDS011;9904;52.246;20.898;2023-04-25T02:14:40;36.10;;;19.97;;
19519;SDS011;9904;52.246;20.898;2023-04-25T02:17:06;29.63;;;19.03;;
19519;SDS011;9904;52.246;20.898;2023-04-25T02:19:33;37.00;;;20.37;;
19519;SDS011;9904;52.246;20.898;2023-04-25T02:22:00;34.90;;;19.20;;
19519;SDS011;9904;52.246;20.898;2023-04-25T02:24:26;31.73;;;18.50;;
19519;SDS011;9904;52.246;20.898;2023-04-25T02:26:54;34.13;;;19.30;;
19519;SDS011;9904;52.246;20.898;2023-04-25T02:29:22;29.80;;;17.27;;
19519;SDS011;9904;52.246;20.898;2023-04-25T02:31:49;30.70;;;17.33;;
19519;SDS011;9904;52.246;20.898;2023-04-25T02:34:16;34.50;;;17.50;;
19519;SDS011;9904;52.246;20.898;2023-04-25T02:36:42;28.73;;;16.53;;
19519;SDS011;9904;52.246;20.898;2023-04-25T02:39:09;28.23;;;17.17;;
19519;SDS011;9904;52.246;20.898;2023-04-25T02:41:36;33.53;;;18.00;;
19519;SDS011;9904;52.246;20.898;2023-04-25T02:44:03;32.50;;;16.27;;
19519;SDS011;9904;52.246;20.898;2023-04-25T02:46:30;24.50;;;15.47;;
19519;SDS011;9904;52.246;20.898;2023-04-25T02:49:05;31.63;;;16.80;;
19519;SDS011;9904;52.246;20.898;2023-04-25T02:51:32;28.73;;;16.33;;
19519;SDS011;9904;52.246;20.898;2023-04-25T02:53:59;28.23;;;15.83;;
19519;SDS011;9904;52.246;20.898;2023-04-25T02:56:25;25.93;;;15.47;;
19519;SDS011;9904;52.246;20.898;2023-04-25T02:58:53;30.23;;;16.33;;
19519;SDS011;9904;52.246;20.898;2023-04-25T03:01:19;29.53;;;17.07;;
19519;SDS011;9904;52.246;20.898;2023-04-25T03:03:46;29.23;;;15.77;;
19519;SDS011;9904;52.246;20.898;2023-04-25T03:06:13;29.30;;;15.73;;
19519;SDS011;9904;52.246;20.898;2023-04-25T03:08:40;28.73;;;15.20;;
19519;SDS011;9904;52.246;20.898;2023-04-25T03:11:06;30.30;;;15.17;;
19519;SDS011;9904;52.246;20.898;2023-04-25T03:13:33;27.70;;;15.33;;
19519;SDS011;9904;52.246;20.898;2023-04-25T03:16:00;24.73;;;14.97;;
19519;SDS011;9904;52.246;20.898;2023-04-25T03:18:27;28.90;;;13.87;;
19519;SDS011;9904;52.246;20.898;2023-04-25T03:20:53;27.03;;;14.27;;
19519;SDS011;9904;52.246;20.898;2023-04-25T03:23:20;25.80;;;14.63;;
19519;SDS011;9904;52.246;20.898;2023-04-25T03:25:47;22.40;;;14.43;;
19519;SDS011;9904;52.246;20.898;2023-04-25T03:28:14;30.37;;;15.97;;
19519;SDS011;9904;52.246;20.898;2023-04-25T03:30:40;30.13;;;15.97;;
19519;SDS011;9904;52.246;20.898;2023-04-25T03:33:07;23.57;;;14.43;;
19519;SDS011;9904;52.246;20.898;2023-04-25T03:35:33;29.00;;;15.50;;
19519;SDS011;9904;52.246;20.898;2023-04-25T03:38:00;25.07;;;15.10;;
19519;SDS011;9904;52.246;20.898;2023-04-25T03:40:26;25.37;;;14.73;;
19519;SDS011;9904;52.246;20.898;2023-04-25T03:42:53;25.40;;;14.63;;
19519;SDS011;9904;52.246;20.898;2023-04-25T03:45:20;23.70;;;14.27;;
19519;SDS011;9904;52.246;20.898;2023-04-25T03:47:46;22.83;;;14.40;;
19519;SDS011;9904;52.246;20.898;2023-04-25T03:50:13;29.83;;;14.37;;
19519;SDS011;9904;52.246;20.898;2023-04-25T03:52:39;25.13;;;14.20;;
19519;SDS011;9904;52.246;20.898;2023-04-25T03:55:06;23.37;;;13.70;;
19519;SDS011;9904;52.246;20.898;2023-04-25T03:57:33;26.23;;;13.57;;
19519;SDS011;9904;52.246;20.898;2023-04-25T03:59:59;22.57;;;13.40;;
19519;SDS011;9904;52.246;20.898;2023-04-25T04:02:26;21.50;;;14.20;;
19519;SDS011;9904;52.246;20.898;2023-04-25T04:04:53;23.00;;;12.57;;
19519;SDS011;9904;52.246;20.898;2023-04-25T04:07:20;19.77;;;11.90;;
19519;SDS011;9904;52.246;20.898;2023-04-25T04:09:46;20.63;;;12.30;;
19519;SDS011;9904;52.246;20.898;2023-04-25T04:12:13;19.67;;;11.53;;
19519;SDS011;9904;52.246;20.898;2023-04-25T04:14:40;20.90;;;11.63;;
19519;SDS011;9904;52.246;20.898;2023-04-25T04:17:06;16.47;;;10.83;;
19519;SDS011;9904;52.246;20.898;2023-04-25T04:19:33;18.37;;;11.47;;
19519;SDS011;9904;52.246;20.898;2023-04-25T04:21:59;18.57;;;11.27;;
19519;SDS011;9904;52.246;20.898;2023-04-25T04:24:26;24.77;;;11.60;;
19519;SDS011;9904;52.246;20.898;2023-04-25T04:26:53;16.77;;;10.67;;
19519;SDS011;9904;52.246;20.898;2023-04-25T04:29:19;16.33;;;11.00;;
19519;SDS011;9904;52.246;20.898;2023-04-25T04:31:49;18.57;;;11.63;;
19519;SDS011;9904;52.246;20.898;2023-04-25T04:34:17;24.03;;;13.43;;
19519;SDS011;9904;52.246;20.898;2023-04-25T04:36:44;17.93;;;11.03;;
19519;SDS011;9904;52.246;20.898;2023-04-25T04:39:14;19.60;;;11.90;;
19519;SDS011;9904;52.246;20.898;2023-04-25T04:41:41;19.67;;;12.73;;
19519;SDS011;9904;52.246;20.898;2023-04-25T04:44:13;20.73;;;11.80;;
19519;SDS011;9904;52.246;20.898;2023-04-25T04:46:40;17.67;;;11.33;;
19519;SDS011;9904;52.246;20.898;2023-04-25T04:49:09;21.37;;;12.00;;
19519;SDS011;9904;52.246;20.898;2023-04-25T04:51:37;17.70;;;11.87;;
19519;SDS011;9904;52.246;20.898;2023-04-25T04:54:04;20.20;;;11.80;;
19519;SDS011;9904;52.246;20.898;2023-04-25T04:56:31;27.00;;;13.00;;
19519;SDS011;9904;52.246;20.898;2023-04-25T04:58:57;20.13;;;13.87;;
19519;SDS011;9904;52.246;20.898;2023-04-25T05:01:25;24.50;;;13.83;;
19519;SDS011;9904;52.246;20.898;2023-04-25T05:03:52;24.60;;;13.30;;
19519;SDS011;9904;52.246;20.898;2023-04-25T05:06:20;21.93;;;14.13;;
19519;SDS011;9904;52.246;20.898;2023-04-25T05:08:46;22.87;;;14.27;;
19519;SDS011;9904;52.246;20.898;2023-04-25T05:11:13;24.20;;;13.83;;
19519;SDS011;9904;52.246;20.898;2023-04-25T05:13:39;22.50;;;13.83;;
19519;SDS011;9904;52.246;20.898;2023-04-25T05:16:06;21.43;;;14.03;;
19519;SDS011;9904;52.246;20.898;2023-04-25T05:18:33;20.13;;;13.53;;
19519;SDS011;9904;52.246;20.898;2023-04-25T05:20:59;23.20;;;13.20;;
19519;SDS011;9904;52.246;20.898;2023-04-25T05:23:26;18.13;;;12.83;;
19519;SDS011;9904;52.246;20.898;2023-04-25T05:25:54;17.40;;;12.57;;
19519;SDS011;9904;52.246;20.898;2023-04-25T05:28:20;20.43;;;13.30;;
19519;SDS011;9904;52.246;20.898;2023-04-25T05:30:47;18.60;;;12.17;;
19519;SDS011;9904;52.246;20.898;2023-04-25T05:33:14;17.60;;;11.50;;
19519;SDS011;9904;52.246;20.898;2023-04-25T05:35:41;17.80;;;11.60;;
19519;SDS011;9904;52.246;20.898;2023-04-25T05:38:08;19.20;;;12.20;;
19519;SDS011;9904;52.246;20.898;2023-04-25T05:40:35;20.63;;;12.90;;
19519;SDS011;9904;52.246;20.898;2023-04-25T05:43:01;16.60;;;11.97;;
19519;SDS011;9904;52.246;20.898;2023-04-25T05:45:28;17.27;;;12.47;;
19519;SDS011;9904;52.246;20.898;2023-04-25T05:47:55;18.83;;;13.00;;
19519;SDS011;9904;52.246;20.898;2023-04-25T05:50:21;18.53;;;12.97;;
19519;SDS011;9904;52.246;20.898;2023-04-25T05:52:48;18.17;;;12.50;;
19519;SDS011;9904;52.246;20.898;2023-04-25T05:55:15;21.20;;;13.40;;
19519;SDS011;9904;52.246;20.898;2023-04-25T05:57:41;17.97;;;12.50;;
19519;SDS011;9904;52.246;20.898;2023-04-25T06:00:12;17.50;;;12.23;;
19519;SDS011;9904;52.246;20.898;2023-04-25T06:02:39;19.23;;;12.53;;
19519;SDS011;9904;52.246;20.898;2023-04-25T06:05:06;18.60;;;12.50;;
19519;SDS011;9904;52.246;20.898;2023-04-25T06:07:33;21.87;;;13.60;;
19519;SDS011;9904;52.246;20.898;2023-04-25T06:10:00;18.63;;;12.67;;
19519;SDS011;9904;52.246;20.898;2023-04-25T06:12:27;18.37;;;13.20;;
19519;SDS011;9904;52.246;20.898;2023-04-25T06:14:53;18.13;;;12.57;;
19519;SDS011;9904;52.246;20.898;2023-04-25T06:17:20;18.67;;;13.30;;
19519;SDS011;9904;52.246;20.898;2023-04-25T06:19:47;19.00;;;12.70;;
19519;SDS011;9904;52.246;20.898;2023-04-25T06:22:13;20.87;;;13.60;;
19519;SDS011;9904;52.246;20.898;2023-04-25T06:24:40;17.20;;;12.17;;
19519;SDS011;9904;52.246;20.898;2023-04-25T06:27:07;19.00;;;12.93;;
19519;SDS011;9904;52.246;20.898;2023-04-25T06:29:33;18.93;;;12.03;;
19519;SDS011;9904;52.246;20.898;2023-04-25T06:32:00;20.37;;;11.80;;
19519;SDS011;9904;52.246;20.898;2023-04-25T06:34:26;17.60;;;11.70;;
19519;SDS011;9904;52.246;20.898;2023-04-25T06:36:53;18.93;;;11.47;;
19519;SDS011;9904;52.246;20.898;2023-04-25T06:39:19;17.77;;;11.97;;
19519;SDS011;9904;52.246;20.898;2023-04-25T06:41:48;17.23;;;11.53;;
19519;SDS011;9904;52.246;20.898;2023-04-25T06:44:15;17.83;;;11.93;;
19519;SDS011;9904;52.246;20.898;2023-04-25T06:46:42;19.47;;;10.70;;
19519;SDS011;9904;52.246;20.898;2023-04-25T06:49:08;18.63;;;11.10;;
19519;SDS011;9904;52.246;20.898;2023-04-25T06:51:36;21.20;;;11.80;;
19519;SDS011;9904;52.246;20.898;2023-04-25T06:54:03;17.30;;;11.17;;
19519;SDS011;9904;52.246;20.898;2023-04-25T06:56:31;19.07;;;11.83;;
19519;SDS011;9904;52.246;20.898;2023-04-25T06:58:57;22.70;;;11.87;;
19519;SDS011;9904;52.246;20.898;2023-04-25T07:01:24;20.03;;;11.73;;
19519;SDS011;9904;52.246;20.898;2023-04-25T07:03:51;19.10;;;11.67;;
19519;SDS011;9904;52.246;20.898;2023-04-25T07:06:18;18.30;;;12.67;;
19519;SDS011;9904;52.246;20.898;2023-04-25T07:08:45;22.67;;;12.50;;
19519;SDS011;9904;52.246;20.898;2023-04-25T07:11:11;19.67;;;11.53;;
19519;SDS011;9904;52.246;20.898;2023-04-25T07:13:38;15.20;;;10.87;;
19519;SDS011;9904;52.246;20.898;2023-04-25T07:16:04;15.57;;;10.70;;
19519;SDS011;9904;52.246;20.898;2023-04-25T07:18:31;17.40;;;10.03;;
19519;SDS011;9904;52.246;20.898;2023-04-25T07:20:58;13.83;;;8.97;;
19519;SDS011;9904;52.246;20.898;2023-04-25T07:23:25;15.23;;;9.40;;
19519;SDS011;9904;52.246;20.898;2023-04-25T07:25:51;14.57;;;9.40;;
19519;SDS011;9904;52.246;20.898;2023-04-25T07:28:18;13.07;;;9.23;;
19519;SDS011;9904;52.246;20.898;2023-04-25T07:30:45;12.50;;;8.73;;
19519;SDS011;9904;52.246;20.898;2023-04-25T07:33:12;14.60;;;9.10;;
19519;SDS011;9904;52.246;20.898;2023-04-25T07:35:38;13.23;;;9.20;;
19519;SDS011;9904;52.246;20.898;2023-04-25T07:38:06;12.47;;;8.67;;
19519;SDS011;9904;52.246;20.898;2023-04-25T07:40:33;16.30;;;7.90;;
19519;SDS011;9904;52.246;20.898;2023-04-25T07:43:00;12.87;;;8.10;;
19519;SDS011;9904;52.246;20.898;2023-04-25T07:45:26;12.63;;;8.07;;
19519;SDS011;9904;52.246;20.898;2023-04-25T07:47:53;13.13;;;7.73;;
19519;SDS011;9904;52.246;20.898;2023-04-25T07:50:20;14.57;;;7.80;;
19519;SDS011;9904;52.246;20.898;2023-04-25T07:52:46;11.77;;;7.97;;
19519;SDS011;9904;52.246;20.898;2023-04-25T07:55:13;14.13;;;7.30;;
19519;SDS011;9904;52.246;20.898;2023-04-25T07:57:39;11.07;;;7.60;;
19519;SDS011;9904;52.246;20.898;2023-04-25T08:00:07;10.60;;;7.90;;
19519;SDS011;9904;52.246;20.898;2023-04-25T08:02:37;10.63;;;7.73;;
19519;SDS011;9904;52.246;20.898;2023-04-25T08:05:04;10.03;;;7.47;;
19519;SDS011;9904;52.246;20.898;2023-04-25T08:07:31;10.97;;;7.50;;
19519;SDS011;9904;52.246;20.898;2023-04-25T08:09:58;11.27;;;6.40;;
19519;SDS011;9904;52.246;20.898;2023-04-25T08:12:25;9.10;;;6.60;;
19519;SDS011;9904;52.246;20.898;2023-04-25T08:14:51;8.87;;;5.90;;
19519;SDS011;9904;52.246;20.898;2023-04-25T08:17:19;9.67;;;6.80;;
19519;SDS011;9904;52.246;20.898;2023-04-25T08:19:46;12.10;;;6.77;;
19519;SDS011;9904;52.246;20.898;2023-04-25T08:22:12;10.43;;;6.17;;
19519;SDS011;9904;52.246;20.898;2023-04-25T08:24:39;10.60;;;6.70;;
19519;SDS011;9904;52.246;20.898;2023-04-25T08:27:06;12.93;;;7.30;;
19519;SDS011;9904;52.246;20.898;2023-04-25T08:29:34;9.53;;;6.77;;
19519;SDS011;9904;52.246;20.898;2023-04-25T08:32:01;9.80;;;6.90;;
19519;SDS011;9904;52.246;20.898;2023-04-25T08:34:27;10.03;;;6.63;;
19519;SDS011;9904;52.246;20.898;2023-04-25T08:36:54;10.40;;;6.73;;
19519;SDS011;9904;52.246;20.898;2023-04-25T08:39:21;9.27;;;6.20;;
19519;SDS011;9904;52.246;20.898;2023-04-25T08:41:47;8.60;;;6.53;;
19519;SDS011;9904;52.246;20.898;2023-04-25T08:44:14;9.80;;;6.47;;
19519;SDS011;9904;52.246;20.898;2023-04-25T08:46:41;10.53;;;6.00;;
19519;SDS011;9904;52.246;20.898;2023-04-25T08:49:08;9.33;;;5.60;;
19519;SDS011;9904;52.246;20.898;2023-04-25T08:51:42;7.87;;;5.40;;
19519;SDS011;9904;52.246;20.898;2023-04-25T08:54:13;7.33;;;5.40;;
19519;SDS011;9904;52.246;20.898;2023-04-25T08:57:03;9.53;;;5.83;;
19519;SDS011;9904;52.246;20.898;2023-04-25T08:59:31;9.60;;;7.13;;
19519;SDS011;9904;52.246;20.898;2023-04-25T09:01:58;10.40;;;7.77;;
19519;SDS011;9904;52.246;20.898;2023-04-25T09:04:26;13.63;;;9.13;;
19519;SDS011;9904;52.246;20.898;2023-04-25T09:06:53;13.17;;;9.67;;
19519;SDS011;9904;52.246;20.898;2023-04-25T09:09:20;15.10;;;10.17;;
19519;SDS011;9904;52.246;20.898;2023-04-25T09:11:47;15.20;;;10.33;;
19519;SDS011;9904;52.246;20.898;2023-04-25T09:14:15;15.07;;;11.40;;
19519;SDS011;9904;52.246;20.898;2023-04-25T09:19:33;15.00;;;10.87;;
19519;SDS011;9904;52.246;20.898;2023-04-25T09:22:07;16.13;;;11.17;;
19519;SDS011;9904;52.246;20.898;2023-04-25T09:24:36;19.17;;;12.73;;
19519;SDS011;9904;52.246;20.898;2023-04-25T09:27:05;15.03;;;10.80;;
19519;SDS011;9904;52.246;20.898;2023-04-25T09:29:34;14.23;;;11.10;;
19519;SDS011;9904;52.246;20.898;2023-04-25T09:32:12;17.27;;;11.77;;
19519;SDS011;9904;52.246;20.898;2023-04-25T09:34:43;15.90;;;11.83;;
19519;SDS011;9904;52.246;20.898;2023-04-25T09:37:10;19.33;;;13.13;;
19519;SDS011;9904;52.246;20.898;2023-04-25T09:39:38;21.87;;;13.37;;
19519;SDS011;9904;52.246;20.898;2023-04-25T09:42:05;17.80;;;12.70;;
19519;SDS011;9904;52.246;20.898;2023-04-25T09:44:32;18.77;;;13.77;;
19519;SDS011;9904;52.246;20.898;2023-04-25T09:46:58;17.93;;;12.57;;
19519;SDS011;9904;52.246;20.898;2023-04-25T09:49:25;20.10;;;14.23;;
19519;SDS011;9904;52.246;20.898;2023-04-25T09:51:57;25.23;;;15.23;;
19519;SDS011;9904;52.246;20.898;2023-04-25T09:54:24;19.80;;;13.93;;
19519;SDS011;9904;52.246;20.898;2023-04-25T09:56:52;16.93;;;13.43;;
19519;SDS011;9904;52.246;20.898;2023-04-25T09:59:20;17.17;;;12.90;;
19519;SDS011;9904;52.246;20.898;2023-04-25T10:01:48;23.07;;;13.80;;
19519;SDS011;9904;52.246;20.898;2023-04-25T10:04:20;18.47;;;13.53;;
19519;SDS011;9904;52.246;20.898;2023-04-25T10:06:53;20.83;;;14.87;;
19519;SDS011;9904;52.246;20.898;2023-04-25T10:09:20;20.03;;;14.30;;
19519;SDS011;9904;52.246;20.898;2023-04-25T10:11:47;17.53;;;13.47;;
19519;SDS011;9904;52.246;20.898;2023-04-25T10:14:14;20.63;;;13.90;;
19519;SDS011;9904;52.246;20.898;2023-04-25T10:16:42;22.30;;;13.90;;
19519;SDS011;9904;52.246;20.898;2023-04-25T10:19:13;19.23;;;13.93;;
19519;SDS011;9904;52.246;20.898;2023-04-25T10:21:44;16.67;;;12.47;;
19519;SDS011;9904;52.246;20.898;2023-04-25T10:24:14;15.90;;;12.67;;
19519;SDS011;9904;52.246;20.898;2023-04-25T10:26:41;18.47;;;13.80;;
19519;SDS011;9904;52.246;20.898;2023-04-25T10:29:08;21.40;;;13.73;;
19519;SDS011;9904;52.246;20.898;2023-04-25T10:31:44;20.00;;;14.57;;
19519;SDS011;9904;52.246;20.898;2023-04-25T10:34:12;19.03;;;12.53;;
19519;SDS011;9904;52.246;20.898;2023-04-25T10:36:38;16.87;;;12.00;;
19519;SDS011;9904;52.246;20.898;2023-04-25T10:39:06;15.03;;;11.80;;
19519;SDS011;9904;52.246;20.898;2023-04-25T10:41:47;16.10;;;12.20;;
19519;SDS011;9904;52.246;20.898;2023-04-25T10:44:15;19.10;;;12.70;;
19519;SDS011;9904;52.246;20.898;2023-04-25T10:46:42;20.37;;;13.33;;
19519;SDS011;9904;52.246;20.898;2023-04-25T10:49:10;16.63;;;13.13;;
19519;SDS011;9904;52.246;20.898;2023-04-25T10:51:40;16.67;;;12.87;;
19519;SDS011;9904;52.246;20.898;2023-04-25T10:54:21;18.30;;;13.13;;
19519;SDS011;9904;52.246;20.898;2023-04-25T10:56:48;17.07;;;12.83;;
19519;SDS011;9904;52.246;20.898;2023-04-25T10:59:17;18.80;;;14.00;;
19519;SDS011;9904;52.246;20.898;2023-04-25T11:04:25;19.57;;;13.50;;
19519;SDS011;9904;52.246;20.898;2023-04-25T11:10:33;17.60;;;13.13;;
19519;SDS011;9904;52.246;20.898;2023-04-25T11:13:03;17.03;;;12.73;;
19519;SDS011;9904;52.246;20.898;2023-04-25T11:15:31;17.17;;;13.23;;
19519;SDS011;9904;52.246;20.898;2023-04-25T11:17:57;17.80;;;13.50;;
19519;SDS011;9904;52.246;20.898;2023-04-25T11:20:25;15.13;;;11.97;;
19519;SDS011;9904;52.246;20.898;2023-04-25T11:22:52;16.73;;;12.60;;
19519;SDS011;9904;52.246;20.898;2023-04-25T11:25:19;18.17;;;12.37;;
19519;SDS011;9904;52.246;20.898;2023-04-25T11:27:49;16.30;;;12.33;;
19519;SDS011;9904;52.246;20.898;2023-04-25T11:30:19;20.50;;;12.83;;
19519;SDS011;9904;52.246;20.898;2023-04-25T11:32:46;22.33;;;13.60;;
19519;SDS011;9904;52.246;20.898;2023-04-25T11:35:13;18.17;;;13.27;;
19519;SDS011;9904;52.246;20.898;2023-04-25T11:37:41;16.10;;;12.00;;
19519;SDS011;9904;52.246;20.898;2023-04-25T11:40:09;16.23;;;12.27;;
19519;SDS011;9904;52.246;20.898;2023-04-25T11:42:38;16.53;;;12.90;;
19519;SDS011;9904;52.246;20.898;2023-04-25T11:45:05;18.20;;;10.90;;
19519;SDS011;9904;52.246;20.898;2023-04-25T11:47:33;13.47;;;9.77;;
19519;SDS011;9904;52.246;20.898;2023-04-25T11:50:00;15.03;;;10.80;;
19519;SDS011;9904;52.246;20.898;2023-04-25T11:55:07;15.93;;;10.80;;
19519;SDS011;9904;52.246;20.898;2023-04-25T11:57:39;13.10;;;9.20;;
19519;SDS011;9904;52.246;20.898;2023-04-25T12:00:13;12.73;;;9.20;;
19519;SDS011;9904;52.246;20.898;2023-04-25T12:02:45;12.80;;;7.93;;
19519;SDS011;9904;52.246;20.898;2023-04-25T12:05:13;9.50;;;7.27;;
19519;SDS011;9904;52.246;20.898;2023-04-25T12:07:47;13.43;;;7.27;;
19519;SDS011;9904;52.246;20.898;2023-04-25T12:10:14;9.83;;;7.57;;
19519;SDS011;9904;52.246;20.898;2023-04-25T12:12:43;11.93;;;7.30;;
19519;SDS011;9904;52.246;20.898;2023-04-25T12:15:11;8.50;;;6.73;;
19519;SDS011;9904;52.246;20.898;2023-04-25T12:17:51;8.47;;;6.33;;
19519;SDS011;9904;52.246;20.898;2023-04-25T12:20:20;8.30;;;6.10;;
19519;SDS011;9904;52.246;20.898;2023-04-25T12:22:50;7.90;;;5.20;;
19519;SDS011;9904;52.246;20.898;2023-04-25T12:30:59;10.87;;;4.77;;
19519;SDS011;9904;52.246;20.898;2023-04-25T12:33:26;8.57;;;4.73;;
19519;SDS011;9904;52.246;20.898;2023-04-25T12:35:57;8.13;;;4.37;;
19519;SDS011;9904;52.246;20.898;2023-04-25T12:38:24;6.00;;;4.37;;
19519;SDS011;9904;52.246;20.898;2023-04-25T12:40:53;8.23;;;4.30;;
19519;SDS011;9904;52.246;20.898;2023-04-25T12:43:20;6.53;;;4.67;;
19519;SDS011;9904;52.246;20.898;2023-04-25T12:45:48;8.30;;;5.03;;
19519;SDS011;9904;52.246;20.898;2023-04-25T12:48:17;7.33;;;4.97;;
19519;SDS011;9904;52.246;20.898;2023-04-25T12:50:44;5.87;;;4.90;;
19519;SDS011;9904;52.246;20.898;2023-04-25T12:53:11;7.60;;;5.20;;
19519;SDS011;9904;52.246;20.898;2023-04-25T12:55:38;7.37;;;5.60;;
19519;SDS011;9904;52.246;20.898;2023-04-25T12:58:05;8.10;;;5.80;;
19519;SDS011;9904;52.246;20.898;2023-04-25T13:00:31;7.50;;;5.30;;
19519;SDS011;9904;52.246;20.898;2023-04-25T13:02:58;6.93;;;5.23;;
19519;SDS011;9904;52.246;20.898;2023-04-25T13:05:25;7.00;;;5.30;;
19519;SDS011;9904;52.246;20.898;2023-04-25T13:07:52;10.43;;;5.27;;
19519;SDS011;9904;52.246;20.898;2023-04-25T13:10:19;7.73;;;5.43;;
19519;SDS011;9904;52.246;20.898;2023-04-25T13:12:45;12.23;;;4.80;;
19519;SDS011;9904;52.246;20.898;2023-04-25T13:15:12;11.27;;;6.93;;
19519;SDS011;9904;52.246;20.898;2023-04-25T13:17:39;7.80;;;5.20;;
19519;SDS011;9904;52.246;20.898;2023-04-25T13:20:06;8.37;;;5.13;;
19519;SDS011;9904;52.246;20.898;2023-04-25T13:22:37;6.70;;;4.93;;
19519;SDS011;9904;52.246;20.898;2023-04-25T13:25:05;7.43;;;4.87;;
19519;SDS011;9904;52.246;20.898;2023-04-25T13:27:33;7.23;;;5.03;;
19519;SDS011;9904;52.246;20.898;2023-04-25T13:30:02;9.83;;;5.67;;
19519;SDS011;9904;52.246;20.898;2023-04-25T13:32:33;8.43;;;5.40;;
19519;SDS011;9904;52.246;20.898;2023-04-25T13:35:02;7.80;;;5.03;;
19519;SDS011;9904;52.246;20.898;2023-04-25T13:37:35;7.87;;;5.70;;
19519;SDS011;9904;52.246;20.898;2023-04-25T13:40:03;10.73;;;5.40;;
19519;SDS011;9904;52.246;20.898;2023-04-25T13:42:31;8.10;;;5.10;;
19519;SDS011;9904;52.246;20.898;2023-04-25T13:44:58;6.97;;;5.30;;
19519;SDS011;9904;52.246;20.898;2023-04-25T13:47:25;8.97;;;5.23;;
19519;SDS011;9904;52.246;20.898;2023-04-25T13:49:53;8.83;;;5.37;;
19519;SDS011;9904;52.246;20.898;2023-04-25T13:52:19;7.60;;;4.93;;
19519;SDS011;9904;52.246;20.898;2023-04-25T13:54:46;7.87;;;5.33;;
19519;SDS011;9904;52.246;20.898;2023-04-25T13:57:13;10.80;;;5.47;;
19519;SDS011;9904;52.246;20.898;2023-04-25T13:59:39;13.67;;;5.70;;
19519;SDS011;9904;52.246;20.898;2023-04-25T14:02:07;9.97;;;5.50;;
19519;SDS011;9904;52.246;20.898;2023-04-25T14:04:34;8.27;;;5.37;;
19519;SDS011;9904;52.246;20.898;2023-04-25T14:07:02;11.33;;;5.73;;
19519;SDS011;9904;52.246;20.898;2023-04-25T14:09:28;12.73;;;5.90;;
19519;SDS011;9904;52.246;20.898;2023-04-25T14:11:55;8.00;;;5.50;;
19519;SDS011;9904;52.246;20.898;2023-04-25T14:14:22;8.37;;;5.10;;
19519;SDS011;9904;52.246;20.898;2023-04-25T14:16:49;10.47;;;5.47;;
19519;SDS011;9904;52.246;20.898;2023-04-25T14:19:17;13.67;;;5.60;;
19519;SDS011;9904;52.246;20.898;2023-04-25T14:21:47;6.43;;;4.93;;
19519;SDS011;9904;52.246;20.898;2023-04-25T14:24:14;9.50;;;4.90;;
19519;SDS011;9904;52.246;20.898;2023-04-25T14:26:41;6.90;;;4.93;;
19519;SDS011;9904;52.246;20.898;2023-04-25T14:29:08;6.97;;;4.63;;
19519;SDS011;9904;52.246;20.898;2023-04-25T14:31:38;6.67;;;4.47;;
19519;SDS011;9904;52.246;20.898;2023-04-25T14:34:06;6.27;;;4.57;;
19519;SDS011;9904;52.246;20.898;2023-04-25T14:36:33;10.30;;;4.60;;
19519;SDS011;9904;52.246;20.898;2023-04-25T14:39:01;5.57;;;4.30;;
19519;SDS011;9904;52.246;20.898;2023-04-25T14:41:28;6.17;;;4.40;;
19519;SDS011;9904;52.246;20.898;2023-04-25T14:43:55;6.40;;;4.50;;
19519;SDS011;9904;52.246;20.898;2023-04-25T14:46:23;7.37;;;4.97;;
19519;SDS011;9904;52.246;20.898;2023-04-25T14:48:50;6.33;;;4.37;;